Time;durP1;ratioP1;P1;durP2;ratioP2;P2;SDS_P1;SDS_P2;PMS_P1;PMS_P2;Temp;Humidity;BMP_temperature;BMP_pressure;BME280_temperature;BME280_humidity;BME280_pressure;Samples;Min_cycle;Max_cycle;Signal;HPM_P1;HPM_P2
2022/07/22 00:00:32;;;;;;;5.90;4.07;;;;;;;;;;5052849;28;20114;-77
2022/07/22 00:03:01;;;;;;;6.78;4.38;;;;;;;;;;5050870;28;20109;-78
2022/07/22 00:05:28;;;;;;;5.75;4.10;;;;;;;;;;5052217;28;20045;-78
2022/07/22 00:07:55;;;;;;;7.43;4.00;;;;;;;;;;5050582;28;20425;-79
2022/07/22 00:10:21;;;;;;;6.32;4.28;;;;;;;;;;5033936;28;20135;-77
2022/07/22 00:12:48;;;;;;;6.40;3.80;;;;;;;;;;5050948;28;20053;-77
2022/07/22 00:15:14;;;;;;;5.35;3.60;;;;;;;;;;5034818;28;20123;-77
2022/07/22 00:17:41;;;;;;;10.85;3.72;;;;;;;;;;5051752;28;20056;-77
2022/07/22 00:20:07;;;;;;;9.30;4.43;;;;;;;;;;5053185;28;20053;-78
2022/07/22 00:22:34;;;;;;;6.03;3.78;;;;;;;;;;5048830;28;20071;-77
2022/07/22 00:25:00;;;;;;;7.03;3.88;;;;;;;;;;5051091;28;20053;-77
2022/07/22 00:27:27;;;;;;;6.03;3.92;;;;;;;;;;5050597;28;20049;-77
2022/07/22 00:29:53;;;;;;;7.18;3.70;;;;;;;;;;5050489;28;20088;-77
2022/07/22 00:32:20;;;;;;;6.70;4.20;;;;;;;;;;5050446;28;20049;-77
2022/07/22 00:34:47;;;;;;;7.20;4.15;;;;;;;;;;5050108;28;20053;-77
2022/07/22 00:37:16;;;;;;;6.70;3.97;;;;;;;;;;5051146;28;20493;-77
2022/07/22 00:39:43;;;;;;;5.93;3.50;;;;;;;;;;5052101;28;20072;-77
2022/07/22 00:42:09;;;;;;;6.55;4.05;;;;;;;;;;5050361;28;20092;-77
2022/07/22 00:44:36;;;;;;;6.70;4.10;;;;;;;;;;5050208;28;20045;-77
2022/07/22 00:47:04;;;;;;;6.28;4.07;;;;;;;;;;5050060;28;20057;-77
2022/07/22 00:49:30;;;;;;;8.52;4.70;;;;;;;;;;5049177;28;20520;-77
2022/07/22 00:51:57;;;;;;;8.48;4.35;;;;;;;;;;5050864;28;20095;-77
2022/07/22 00:54:23;;;;;;;8.70;4.35;;;;;;;;;;5050979;28;20119;-78
2022/07/22 00:56:50;;;;;;;6.82;4.63;;;;;;;;;;5054109;28;20048;-77
2022/07/22 00:59:16;;;;;;;9.38;4.68;;;;;;;;;;5052430;28;20041;-78
2022/07/22 01:01:43;;;;;;;9.63;4.55;;;;;;;;;;5052068;28;20141;-79
2022/07/22 01:04:12;;;;;;;8.52;4.30;;;;;;;;;;5053851;28;20045;-77
2022/07/22 01:06:39;;;;;;;7.05;4.72;;;;;;;;;;5051728;28;20110;-77
2022/07/22 01:09:05;;;;;;;10.02;5.25;;;;;;;;;;5052050;28;20044;-77
2022/07/22 01:11:32;;;;;;;7.85;5.18;;;;;;;;;;5034508;28;20114;-77
2022/07/22 01:13:58;;;;;;;11.82;5.10;;;;;;;;;;5051863;28;20049;-78
2022/07/22 01:16:25;;;;;;;8.38;4.97;;;;;;;;;;5051360;28;20537;-78
2022/07/22 01:18:51;;;;;;;10.25;4.72;;;;;;;;;;5032539;28;20090;-77
2022/07/22 01:21:19;;;;;;;11.80;5.20;;;;;;;;;;5032797;28;20104;-78
2022/07/22 01:23:45;;;;;;;7.93;4.93;;;;;;;;;;5053534;28;20052;-78
2022/07/22 01:26:12;;;;;;;10.55;5.10;;;;;;;;;;5034578;28;20107;-78
2022/07/22 01:28:39;;;;;;;7.03;4.85;;;;;;;;;;5049859;28;20077;-77
2022/07/22 01:31:05;;;;;;;6.68;4.55;;;;;;;;;;5051983;28;20045;-78
2022/07/22 01:33:32;;;;;;;6.72;5.05;;;;;;;;;;5048850;28;20045;-78
2022/07/22 01:35:59;;;;;;;7.07;4.70;;;;;;;;;;5034521;28;20456;-77
2022/07/22 01:38:25;;;;;;;9.27;5.03;;;;;;;;;;5051575;28;20084;-78
2022/07/22 01:40:52;;;;;;;7.05;4.70;;;;;;;;;;5051116;28;20041;-78
2022/07/22 01:43:20;;;;;;;9.48;4.70;;;;;;;;;;5049323;28;20073;-78
2022/07/22 01:45:48;;;;;;;9.02;5.00;;;;;;;;;;5051998;28;20057;-77
2022/07/22 01:48:15;;;;;;;9.20;5.25;;;;;;;;;;5048313;28;20080;-77
2022/07/22 01:50:42;;;;;;;7.80;4.88;;;;;;;;;;5031929;28;20057;-76
2022/07/22 01:53:08;;;;;;;11.90;5.15;;;;;;;;;;5032736;28;20076;-78
2022/07/22 01:55:35;;;;;;;8.30;5.22;;;;;;;;;;5050083;28;20049;-77
2022/07/22 01:58:03;;;;;;;8.40;5.20;;;;;;;;;;5051785;28;20045;-77
2022/07/22 02:00:31;;;;;;;8.18;5.20;;;;;;;;;;5050489;28;20072;-75
2022/07/22 02:02:57;;;;;;;12.15;5.60;;;;;;;;;;5047399;28;20049;-77
2022/07/22 02:05:24;;;;;;;7.50;5.13;;;;;;;;;;5048997;28;20099;-78
2022/07/22 02:07:50;;;;;;;7.65;5.22;;;;;;;;;;5051014;28;20092;-77
2022/07/22 02:10:17;;;;;;;9.38;5.82;;;;;;;;;;5054310;28;20049;-78
2022/07/22 02:12:43;;;;;;;16.10;6.40;;;;;;;;;;5040615;28;20072;-76
2022/07/22 02:15:10;;;;;;;17.48;6.30;;;;;;;;;;5073846;28;20036;-77
2022/07/22 02:17:36;;;;;;;7.00;5.57;;;;;;;;;;5073134;28;20053;-78
2022/07/22 02:20:04;;;;;;;9.88;5.93;;;;;;;;;;5070045;28;20053;-77
2022/07/22 02:22:30;;;;;;;8.05;5.97;;;;;;;;;;5063766;28;20118;-78
2022/07/22 02:24:57;;;;;;;8.30;5.65;;;;;;;;;;5068499;28;20117;-78
2022/07/22 02:27:23;;;;;;;12.02;6.05;;;;;;;;;;5062071;28;20056;-77
2022/07/22 02:29:50;;;;;;;9.75;6.30;;;;;;;;;;5058996;28;20053;-78
2022/07/22 02:32:16;;;;;;;8.75;5.82;;;;;;;;;;5060579;28;20077;-79
2022/07/22 02:34:43;;;;;;;11.68;6.47;;;;;;;;;;5059972;28;20055;-77
2022/07/22 02:37:09;;;;;;;8.38;6.25;;;;;;;;;;5062219;28;20111;-78
2022/07/22 02:39:36;;;;;;;8.88;6.03;;;;;;;;;;5062393;28;20102;-77
2022/07/22 02:42:02;;;;;;;11.05;6.10;;;;;;;;;;5057236;28;20049;-80
2022/07/22 02:44:29;;;;;;;11.65;5.85;;;;;;;;;;5059454;28;20069;-78
2022/07/22 02:46:55;;;;;;;12.95;5.97;;;;;;;;;;5051745;28;20079;-77
2022/07/22 02:49:21;;;;;;;9.55;6.32;;;;;;;;;;5050912;28;20160;-77
2022/07/22 02:51:48;;;;;;;8.32;6.30;;;;;;;;;;5051373;28;20060;-77
2022/07/22 02:54:14;;;;;;;7.55;6.18;;;;;;;;;;5052503;28;20139;-78
2022/07/22 02:56:40;;;;;;;9.20;6.25;;;;;;;;;;5053389;28;20152;-77
2022/07/22 02:59:07;;;;;;;10.00;6.82;;;;;;;;;;5053770;28;20103;-77
2022/07/22 03:01:33;;;;;;;14.00;8.13;;;;;;;;;;5053581;28;20055;-76
2022/07/22 03:04:00;;;;;;;10.77;7.38;;;;;;;;;;5052396;28;20059;-79
2022/07/22 03:06:26;;;;;;;9.35;6.53;;;;;;;;;;5053689;28;20072;-80
2022/07/22 03:08:53;;;;;;;11.82;6.70;;;;;;;;;;5053663;28;20073;-78
2022/07/22 03:11:20;;;;;;;9.05;5.95;;;;;;;;;;5051525;28;20420;-77
2022/07/22 03:13:46;;;;;;;8.55;6.00;;;;;;;;;;5050219;28;20311;-77
2022/07/22 03:16:13;;;;;;;9.02;5.78;;;;;;;;;;5052374;28;20128;-78
2022/07/22 03:18:40;;;;;;;9.38;6.07;;;;;;;;;;5049624;28;20049;-77
2022/07/22 03:21:06;;;;;;;8.38;6.10;;;;;;;;;;5056988;28;20052;-77
2022/07/22 03:23:33;;;;;;;9.80;6.35;;;;;;;;;;5059980;28;20040;-77
2022/07/22 03:26:02;;;;;;;9.80;6.05;;;;;;;;;;5053957;28;20056;-78
2022/07/22 03:28:28;;;;;;;7.68;5.55;;;;;;;;;;5051444;28;20136;-78
2022/07/22 03:30:55;;;;;;;9.70;6.20;;;;;;;;;;5052588;28;20052;-77
2022/07/22 03:33:21;;;;;;;8.40;6.05;;;;;;;;;;5048863;28;20460;-77
2022/07/22 03:35:48;;;;;;;11.90;6.68;;;;;;;;;;5052973;28;20056;-78
2022/07/22 03:38:14;;;;;;;10.82;6.80;;;;;;;;;;5052891;28;20111;-78
2022/07/22 03:40:41;;;;;;;11.90;6.25;;;;;;;;;;5052920;28;20060;-77
2022/07/22 03:43:08;;;;;;;11.68;6.10;;;;;;;;;;5042496;28;20042;-78
2022/07/22 03:45:34;;;;;;;8.60;6.22;;;;;;;;;;5053678;28;20148;-78
2022/07/22 03:48:01;;;;;;;9.55;6.15;;;;;;;;;;5031746;28;20053;-78
2022/07/22 03:50:27;;;;;;;10.43;5.90;;;;;;;;;;5032033;28;20079;-77
2022/07/22 03:52:54;;;;;;;12.38;6.60;;;;;;;;;;5039876;28;20076;-77
2022/07/22 03:55:20;;;;;;;9.95;6.28;;;;;;;;;;5053165;28;20413;-77
2022/07/22 03:57:47;;;;;;;8.18;6.40;;;;;;;;;;5053716;28;20080;-76
2022/07/22 04:00:13;;;;;;;10.60;6.47;;;;;;;;;;5053206;28;20107;-78
2022/07/22 04:02:40;;;;;;;11.10;6.53;;;;;;;;;;5050714;28;20167;-77
2022/07/22 04:05:06;;;;;;;10.93;6.20;;;;;;;;;;5052021;28;20045;-78
2022/07/22 04:07:33;;;;;;;10.32;6.55;;;;;;;;;;5052466;28;20155;-77
2022/07/22 04:10:05;;;;;;;13.07;7.20;;;;;;;;;;5034743;28;20120;-79
2022/07/22 04:12:35;;;;;;;9.80;6.93;;;;;;;;;;5049557;28;20290;-75
2022/07/22 04:15:03;;;;;;;10.93;6.47;;;;;;;;;;5049185;28;20493;-76
2022/07/22 04:17:29;;;;;;;12.60;7.35;;;;;;;;;;5049017;28;20049;-76
2022/07/22 04:19:55;;;;;;;13.13;7.28;;;;;;;;;;5048559;28;20460;-75
2022/07/22 04:22:22;;;;;;;9.55;7.10;;;;;;;;;;5048706;28;20095;-77
2022/07/22 04:24:53;;;;;;;12.63;7.65;;;;;;;;;;5048523;28;20057;-77
2022/07/22 04:27:19;;;;;;;10.43;7.45;;;;;;;;;;5050105;28;20049;-77
2022/07/22 04:29:46;;;;;;;10.52;6.85;;;;;;;;;;5049300;28;20144;-76
2022/07/22 04:32:12;;;;;;;11.07;7.10;;;;;;;;;;5049895;28;20141;-77
2022/07/22 04:34:39;;;;;;;14.00;6.97;;;;;;;;;;5032999;28;20049;-77
2022/07/22 04:37:08;;;;;;;11.15;6.90;;;;;;;;;;5048028;28;20415;-77
2022/07/22 04:39:34;;;;;;;13.27;7.18;;;;;;;;;;5031418;28;20084;-77
2022/07/22 04:42:01;;;;;;;15.80;7.65;;;;;;;;;;5048718;28;20424;-76
2022/07/22 04:44:27;;;;;;;10.15;7.57;;;;;;;;;;5048557;28;20156;-76
2022/07/22 04:46:54;;;;;;;12.23;7.25;;;;;;;;;;5048302;28;20076;-76
2022/07/22 04:49:20;;;;;;;10.65;6.95;;;;;;;;;;5047525;28;20044;-76
2022/07/22 04:51:47;;;;;;;13.05;7.18;;;;;;;;;;5048808;28;20148;-76
2022/07/22 04:54:13;;;;;;;10.57;7.10;;;;;;;;;;5048264;28;20080;-76
2022/07/22 04:56:40;;;;;;;12.20;7.32;;;;;;;;;;5047446;28;20118;-75
2022/07/22 04:59:06;;;;;;;13.02;7.30;;;;;;;;;;5048542;28;20053;-76
2022/07/22 05:01:33;;;;;;;13.70;7.63;;;;;;;;;;5047531;28;20416;-78
2022/07/22 05:03:59;;;;;;;13.35;7.05;;;;;;;;;;5045771;28;20374;-77
2022/07/22 05:06:25;;;;;;;12.68;7.53;;;;;;;;;;5047767;28;20145;-76
2022/07/22 05:08:52;;;;;;;11.73;8.35;;;;;;;;;;5047767;28;20049;-77
2022/07/22 05:11:19;;;;;;;13.35;8.05;;;;;;;;;;5046300;28;20133;-76
2022/07/22 05:13:48;;;;;;;13.00;8.25;;;;;;;;;;5046377;28;20045;-77
2022/07/22 05:16:14;;;;;;;13.48;8.80;;;;;;;;;;5047231;28;20593;-75
2022/07/22 05:18:41;;;;;;;11.65;8.10;;;;;;;;;;5046793;28;20069;-76
2022/07/22 05:21:07;;;;;;;13.18;8.10;;;;;;;;;;5058480;28;20099;-76
2022/07/22 05:23:34;;;;;;;10.77;7.85;;;;;;;;;;5050880;28;20076;-76
2022/07/22 05:26:00;;;;;;;9.65;7.35;;;;;;;;;;5049151;28;20136;-75
2022/07/22 05:28:27;;;;;;;13.38;7.50;;;;;;;;;;5041531;28;20643;-75
2022/07/22 05:30:53;;;;;;;12.35;6.85;;;;;;;;;;5050121;28;20178;-76
2022/07/22 05:33:19;;;;;;;11.50;6.88;;;;;;;;;;5051938;28;20045;-76
2022/07/22 05:35:46;;;;;;;8.65;6.13;;;;;;;;;;5065491;28;20143;-76
2022/07/22 05:38:13;;;;;;;9.80;6.50;;;;;;;;;;5053082;28;20574;-77
2022/07/22 05:40:39;;;;;;;9.77;6.65;;;;;;;;;;5074876;28;20052;-75
2022/07/22 05:43:05;;;;;;;11.00;6.63;;;;;;;;;;5086572;28;20246;-75
2022/07/22 05:45:32;;;;;;;11.00;6.47;;;;;;;;;;5065509;28;20055;-76
2022/07/22 05:47:58;;;;;;;12.30;6.93;;;;;;;;;;5042075;28;20055;-76
2022/07/22 05:50:25;;;;;;;11.70;6.45;;;;;;;;;;5054599;28;20102;-77
2022/07/22 05:52:51;;;;;;;9.13;6.30;;;;;;;;;;5057293;28;20087;-76
2022/07/22 05:55:18;;;;;;;8.52;6.35;;;;;;;;;;5050331;28;20318;-77
2022/07/22 05:57:46;;;;;;;9.57;6.93;;;;;;;;;;5047058;28;20056;-76
2022/07/22 06:00:13;;;;;;;9.68;6.80;;;;;;;;;;5044714;28;20084;-77
2022/07/22 06:02:40;;;;;;;9.25;6.88;;;;;;;;;;5042105;28;20049;-76
2022/07/22 06:05:06;;;;;;;11.68;7.20;;;;;;;;;;5044485;28;20083;-77
2022/07/22 06:07:33;;;;;;;13.90;7.45;;;;;;;;;;5048131;28;20053;-77
2022/07/22 06:10:00;;;;;;;12.93;7.28;;;;;;;;;;5047739;28;20049;-77
2022/07/22 06:12:26;;;;;;;11.48;6.80;;;;;;;;;;5047090;28;20072;-75
2022/07/22 06:14:53;;;;;;;11.30;6.97;;;;;;;;;;5035198;28;20094;-75
2022/07/22 06:17:19;;;;;;;12.75;7.38;;;;;;;;;;5043421;28;20414;-77
2022/07/22 06:19:45;;;;;;;14.00;7.50;;;;;;;;;;5028291;28;20083;-77
2022/07/22 06:22:12;;;;;;;11.68;7.15;;;;;;;;;;5046840;28;20409;-77
2022/07/22 06:24:38;;;;;;;12.05;7.32;;;;;;;;;;5049504;28;20114;-76
2022/07/22 06:27:05;;;;;;;10.10;6.75;;;;;;;;;;5046967;28;20496;-77
2022/07/22 06:29:31;;;;;;;11.13;7.13;;;;;;;;;;5047756;28;20120;-77
2022/07/22 06:31:58;;;;;;;15.05;7.38;;;;;;;;;;5046201;28;20582;-77
2022/07/22 06:34:24;;;;;;;13.45;7.20;;;;;;;;;;5042772;28;20555;-77
2022/07/22 06:36:50;;;;;;;14.73;7.70;;;;;;;;;;5047651;28;20330;-77
2022/07/22 06:39:17;;;;;;;11.43;7.38;;;;;;;;;;5046595;28;20071;-77
2022/07/22 06:41:43;;;;;;;13.23;7.05;;;;;;;;;;5046866;28;20069;-77
2022/07/22 06:44:10;;;;;;;10.85;7.13;;;;;;;;;;5047186;28;20053;-77
2022/07/22 06:46:36;;;;;;;10.88;7.18;;;;;;;;;;5051827;28;20095;-77
2022/07/22 06:49:03;;;;;;;13.02;7.20;;;;;;;;;;5050037;28;20053;-78
2022/07/22 06:51:30;;;;;;;13.07;7.32;;;;;;;;;;5051302;28;20076;-78
2022/07/22 06:53:56;;;;;;;12.20;7.05;;;;;;;;;;5050941;28;20577;-78
2022/07/22 06:56:22;;;;;;;11.00;7.70;;;;;;;;;;5038240;28;20103;-79
2022/07/22 06:58:49;;;;;;;10.05;6.90;;;;;;;;;;5035322;28;20052;-78
2022/07/22 07:01:15;;;;;;;12.63;7.45;;;;;;;;;;5052804;28;20088;-79
2022/07/22 07:03:42;;;;;;;13.60;7.38;;;;;;;;;;5051117;28;20102;-79
2022/07/22 07:06:11;;;;;;;14.52;8.00;;;;;;;;;;5054462;28;20513;-78
2022/07/22 07:08:40;;;;;;;14.52;7.65;;;;;;;;;;5054897;28;20063;-78
2022/07/22 07:11:07;;;;;;;16.27;7.85;;;;;;;;;;5054847;28;20045;-79
2022/07/22 07:13:33;;;;;;;14.05;8.00;;;;;;;;;;5052386;28;20073;-79
2022/07/22 07:15:59;;;;;;;11.43;7.45;;;;;;;;;;5053962;28;20136;-78
2022/07/22 07:18:26;;;;;;;12.43;7.90;;;;;;;;;;5050299;28;20099;-78
2022/07/22 07:20:52;;;;;;;15.38;8.93;;;;;;;;;;5052540;28;20123;-77
2022/07/22 07:23:19;;;;;;;13.50;8.48;;;;;;;;;;5053044;28;20478;-79
2022/07/22 07:25:47;;;;;;;13.13;7.88;;;;;;;;;;5053962;28;20041;-78
2022/07/22 07:28:13;;;;;;;11.75;7.72;;;;;;;;;;5053381;28;20115;-78
2022/07/22 07:30:40;;;;;;;13.23;9.07;;;;;;;;;;5035468;28;20075;-79
2022/07/22 07:33:07;;;;;;;14.32;8.18;;;;;;;;;;5050675;28;20049;-79
2022/07/22 07:35:33;;;;;;;14.90;7.45;;;;;;;;;;5052496;28;20138;-79
2022/07/22 07:37:59;;;;;;;12.50;7.68;;;;;;;;;;5053364;28;20128;-78
2022/07/22 07:40:26;;;;;;;14.43;8.77;;;;;;;;;;5052999;28;20106;-79
2022/07/22 07:42:53;;;;;;;12.18;8.35;;;;;;;;;;5052013;28;20372;-79
2022/07/22 07:45:28;;;;;;;12.77;8.05;;;;;;;;;;5053130;28;20041;-79
2022/07/22 07:47:56;;;;;;;11.95;7.88;;;;;;;;;;5051419;28;20080;-79
2022/07/22 07:50:22;;;;;;;17.70;8.40;;;;;;;;;;5060868;28;20041;-79
2022/07/22 07:52:49;;;;;;;13.50;8.40;;;;;;;;;;5047009;28;20541;-79
2022/07/22 07:55:18;;;;;;;13.85;7.72;;;;;;;;;;5060554;28;20048;-78
2022/07/22 07:57:48;;;;;;;13.27;7.28;;;;;;;;;;5065181;28;20049;-79
2022/07/22 08:00:17;;;;;;;11.63;6.35;;;;;;;;;;5064111;28;20045;-79
2022/07/22 08:02:44;;;;;;;10.38;7.32;;;;;;;;;;5059722;28;20102;-78
2022/07/22 08:05:11;;;;;;;11.65;7.28;;;;;;;;;;5062788;28;20065;-79
2022/07/22 08:07:38;;;;;;;12.43;6.60;;;;;;;;;;5060753;28;20110;-78
2022/07/22 08:10:05;;;;;;;12.50;7.38;;;;;;;;;;5060654;28;20095;-78
2022/07/22 08:12:53;;;;;;;12.05;7.40;;;;;;;;;;5069052;28;20132;-79
2022/07/22 08:15:20;;;;;;;12.48;7.22;;;;;;;;;;5055110;28;20061;-78
2022/07/22 08:17:46;;;;;;;10.43;6.85;;;;;;;;;;5033629;28;20095;-78
2022/07/22 08:20:13;;;;;;;10.32;6.65;;;;;;;;;;5053783;28;20132;-79
2022/07/22 08:22:46;;;;;;;9.30;6.80;;;;;;;;;;5052612;28;20060;-78
2022/07/22 08:25:13;;;;;;;10.32;6.50;;;;;;;;;;5053377;28;20076;-78
2022/07/22 08:27:40;;;;;;;9.52;6.35;;;;;;;;;;5053956;28;20132;-78
2022/07/22 08:30:06;;;;;;;10.55;7.10;;;;;;;;;;5053453;28;20056;-78
2022/07/22 08:32:34;;;;;;;14.20;6.15;;;;;;;;;;5053491;28;20081;-78
2022/07/22 08:35:01;;;;;;;13.82;5.78;;;;;;;;;;5051158;28;20204;-78
2022/07/22 08:37:27;;;;;;;8.70;5.80;;;;;;;;;;5051244;28;20530;-78
2022/07/22 08:39:53;;;;;;;11.23;6.00;;;;;;;;;;5053782;28;20045;-79
2022/07/22 08:42:22;;;;;;;7.72;5.68;;;;;;;;;;5053533;28;20083;-79
2022/07/22 08:44:48;;;;;;;11.32;6.22;;;;;;;;;;5051844;28;20045;-78
2022/07/22 08:47:20;;;;;;;8.70;5.97;;;;;;;;;;5051414;28;20110;-78
2022/07/22 08:50:06;;;;;;;9.05;5.60;;;;;;;;;;5051153;28;20052;-78
2022/07/22 08:52:33;;;;;;;13.07;5.88;;;;;;;;;;5053751;28;20447;-79
2022/07/22 08:55:02;;;;;;;8.48;5.00;;;;;;;;;;5054664;28;20057;-79
2022/07/22 08:57:28;;;;;;;9.63;5.60;;;;;;;;;;5052435;28;20049;-78
2022/07/22 08:59:57;;;;;;;9.40;4.60;;;;;;;;;;5055054;28;20048;-78
2022/07/22 09:02:24;;;;;;;9.43;6.13;;;;;;;;;;5056728;28;20060;-78
2022/07/22 09:05:04;;;;;;;10.98;5.43;;;;;;;;;;5067479;28;20101;-78
2022/07/22 09:07:56;;;;;;;12.85;4.97;;;;;;;;;;5071958;28;20052;-78
2022/07/22 09:10:23;;;;;;;8.32;5.05;;;;;;;;;;5059630;28;20064;-79
2022/07/22 09:12:59;;;;;;;9.13;5.30;;;;;;;;;;5052455;28;20168;-79
2022/07/22 09:15:48;;;;;;;13.05;5.10;;;;;;;;;;5052784;28;20087;-79
2022/07/22 09:18:16;;;;;;;10.45;4.60;;;;;;;;;;5026487;28;20056;-79
2022/07/22 09:20:44;;;;;;;8.68;4.88;;;;;;;;;;5033779;28;20148;-78
2022/07/22 09:23:10;;;;;;;6.75;4.95;;;;;;;;;;5052117;28;20053;-78
2022/07/22 09:25:37;;;;;;;10.90;5.05;;;;;;;;;;5052793;28;20156;-78
2022/07/22 09:28:06;;;;;;;7.18;4.55;;;;;;;;;;5051145;28;20095;-78
2022/07/22 09:30:49;;;;;;;9.15;4.10;;;;;;;;;;5051131;28;20044;-78
2022/07/22 09:33:18;;;;;;;6.03;4.30;;;;;;;;;;5049995;28;20136;-78
2022/07/22 09:35:45;;;;;;;8.50;4.55;;;;;;;;;;5051997;28;20045;-78
2022/07/22 09:38:16;;;;;;;4.85;4.13;;;;;;;;;;5050174;28;20666;-78
2022/07/22 09:40:44;;;;;;;6.20;4.72;;;;;;;;;;5052515;28;20972;-78
2022/07/22 09:43:14;;;;;;;8.10;4.32;;;;;;;;;;5052631;28;20094;-78
2022/07/22 09:45:55;;;;;;;6.95;4.30;;;;;;;;;;5052636;28;20045;-79
2022/07/22 09:48:21;;;;;;;7.88;4.43;;;;;;;;;;5050105;28;20069;-79
2022/07/22 09:50:48;;;;;;;5.43;4.10;;;;;;;;;;5053686;28;20045;-78
2022/07/22 09:53:16;;;;;;;6.78;4.20;;;;;;;;;;5041555;28;20079;-78
2022/07/22 09:55:42;;;;;;;6.00;4.40;;;;;;;;;;5053313;28;20379;-79
2022/07/22 09:58:09;;;;;;;6.93;4.13;;;;;;;;;;5051212;28;20068;-79
2022/07/22 10:00:36;;;;;;;5.15;3.50;;;;;;;;;;5049900;28;20089;-79
2022/07/22 10:03:04;;;;;;;5.68;3.97;;;;;;;;;;5050306;28;20079;-78
2022/07/22 10:05:32;;;;;;;10.20;4.15;;;;;;;;;;5052021;28;20053;-79
2022/07/22 10:08:00;;;;;;;5.85;4.22;;;;;;;;;;5052578;28;20080;-78
2022/07/22 10:10:28;;;;;;;7.90;4.00;;;;;;;;;;5051968;28;20088;-79
2022/07/22 10:12:55;;;;;;;5.45;3.92;;;;;;;;;;5043675;28;20064;-79
2022/07/22 10:15:23;;;;;;;7.50;3.90;;;;;;;;;;5049596;28;20073;-79
2022/07/22 10:17:53;;;;;;;5.68;4.25;;;;;;;;;;5049988;28;20045;-78
2022/07/22 10:20:21;;;;;;;6.57;4.28;;;;;;;;;;5052037;28;20448;-79
2022/07/22 10:22:49;;;;;;;10.05;4.28;;;;;;;;;;5045870;28;20049;-79
2022/07/22 10:25:19;;;;;;;7.10;3.90;;;;;;;;;;5056442;28;20877;-80
2022/07/22 10:27:51;;;;;;;6.00;3.80;;;;;;;;;;5061724;28;20129;-79
2022/07/22 10:30:19;;;;;;;8.27;3.88;;;;;;;;;;5048624;28;20122;-78
2022/07/22 10:33:01;;;;;;;6.65;3.78;;;;;;;;;;5070705;28;20091;-79
2022/07/22 10:35:28;;;;;;;5.82;3.75;;;;;;;;;;5072952;28;20563;-77
2022/07/22 10:37:55;;;;;;;12.90;3.67;;;;;;;;;;5072621;28;20131;-77
2022/07/22 10:40:23;;;;;;;6.68;3.22;;;;;;;;;;5067562;28;20099;-79
2022/07/22 10:43:03;;;;;;;4.55;3.10;;;;;;;;;;5051893;28;20048;-78
2022/07/22 10:45:32;;;;;;;5.05;3.42;;;;;;;;;;5054691;28;20057;-78
2022/07/22 10:48:07;;;;;;;5.18;3.28;;;;;;;;;;5056721;28;20045;-78
2022/07/22 10:50:40;;;;;;;4.35;3.45;;;;;;;;;;5066952;28;20110;-78
2022/07/22 10:53:27;;;;;;;11.50;3.50;;;;;;;;;;5066650;28;20132;-79
2022/07/22 10:55:59;;;;;;;4.45;3.45;;;;;;;;;;5056049;28;20076;-79
2022/07/22 10:58:31;;;;;;;6.85;3.30;;;;;;;;;;5055108;28;20136;-78
2022/07/22 11:01:03;;;;;;;8.38;3.60;;;;;;;;;;5052296;28;20144;-78
2022/07/22 11:03:30;;;;;;;10.68;3.60;;;;;;;;;;5048567;28;20045;-78
2022/07/22 11:05:57;;;;;;;6.68;3.75;;;;;;;;;;5054903;28;20080;-79
2022/07/22 11:08:23;;;;;;;11.10;3.60;;;;;;;;;;5052912;28;20045;-79
2022/07/22 11:10:50;;;;;;;10.48;3.40;;;;;;;;;;5052307;28;20544;-77
2022/07/22 11:13:32;;;;;;;8.82;3.20;;;;;;;;;;5051774;28;20140;-78
2022/07/22 11:16:17;;;;;;;7.63;2.97;;;;;;;;;;5053032;28;20477;-78
2022/07/22 11:18:44;;;;;;;5.95;3.20;;;;;;;;;;5048301;28;20529;-78
2022/07/22 11:21:13;;;;;;;6.82;3.30;;;;;;;;;;5051619;28;20099;-78
2022/07/22 11:23:41;;;;;;;5.22;3.13;;;;;;;;;;5050683;28;20037;-78
2022/07/22 11:26:10;;;;;;;3.83;2.95;;;;;;;;;;5052717;28;20128;-78
2022/07/22 11:28:41;;;;;;;5.93;3.80;;;;;;;;;;5052583;28;20076;-78
2022/07/22 11:31:13;;;;;;;4.38;3.40;;;;;;;;;;5053187;28;20131;-78
2022/07/22 11:33:40;;;;;;;10.45;3.60;;;;;;;;;;5050842;28;20052;-78
2022/07/22 11:36:09;;;;;;;10.13;3.50;;;;;;;;;;5053430;28;20045;-79
2022/07/22 11:38:43;;;;;;;5.57;3.40;;;;;;;;;;5053667;28;20041;-78
2022/07/22 11:41:18;;;;;;;9.10;3.00;;;;;;;;;;5051646;28;20049;-77
2022/07/22 11:43:46;;;;;;;4.38;3.10;;;;;;;;;;5051285;28;20099;-78
2022/07/22 11:46:13;;;;;;;5.00;3.42;;;;;;;;;;5054966;28;20139;-78
2022/07/22 11:48:42;;;;;;;7.25;3.55;;;;;;;;;;5060411;28;20049;-78
2022/07/22 11:51:10;;;;;;;8.57;3.42;;;;;;;;;;5066044;28;20091;-77
2022/07/22 11:53:46;;;;;;;5.70;3.13;;;;;;;;;;5065109;28;20080;-78
2022/07/22 11:56:12;;;;;;;4.57;3.10;;;;;;;;;;5055792;28;20091;-77
2022/07/22 11:58:40;;;;;;;5.45;3.58;;;;;;;;;;5055583;28;20048;-76
2022/07/22 12:01:08;;;;;;;3.80;3.20;;;;;;;;;;5055593;28;20076;-77
2022/07/22 12:03:35;;;;;;;5.65;3.15;;;;;;;;;;5055456;28;20041;-77
2022/07/22 12:06:03;;;;;;;5.30;3.13;;;;;;;;;;5054383;28;20569;-78
2022/07/22 12:08:30;;;;;;;4.43;3.17;;;;;;;;;;5033557;28;20145;-77
2022/07/22 12:10:57;;;;;;;5.20;3.13;;;;;;;;;;5052484;28;20168;-78
2022/07/22 12:13:30;;;;;;;7.18;3.13;;;;;;;;;;5056492;28;20529;-79
2022/07/22 12:16:35;;;;;;;6.85;3.15;;;;;;;;;;5056034;28;20067;-79
2022/07/22 12:19:04;;;;;;;5.30;3.47;;;;;;;;;;5034276;28;20029;-77
2022/07/22 12:21:32;;;;;;;4.57;3.40;;;;;;;;;;5066606;28;20049;-79
2022/07/22 12:24:01;;;;;;;6.93;3.58;;;;;;;;;;5072534;28;20049;-77
2022/07/22 12:26:38;;;;;;;8.50;3.60;;;;;;;;;;5066220;28;20060;-79
2022/07/22 12:29:12;;;;;;;4.60;3.30;;;;;;;;;;5060068;28;20053;-80
2022/07/22 12:31:44;;;;;;;5.30;3.50;;;;;;;;;;5060399;28;20070;-80
2022/07/22 12:34:10;;;;;;;5.85;3.05;;;;;;;;;;5057721;28;20135;-79
2022/07/22 12:36:37;;;;;;;3.97;3.55;;;;;;;;;;5057863;28;20057;-79
2022/07/22 12:39:17;;;;;;;7.05;3.95;;;;;;;;;;5055814;28;20049;-79
2022/07/22 12:41:45;;;;;;;7.72;3.20;;;;;;;;;;5047254;28;20509;-79
2022/07/22 12:44:15;;;;;;;5.05;3.58;;;;;;;;;;5051286;28;20076;-79
2022/07/22 12:46:45;;;;;;;6.53;3.40;;;;;;;;;;5050882;28;20101;-79
2022/07/22 12:49:12;;;;;;;5.43;3.50;;;;;;;;;;5047943;28;20049;-78
2022/07/22 12:51:38;;;;;;;7.60;3.45;;;;;;;;;;5047535;28;20041;-79
2022/07/22 12:54:05;;;;;;;5.90;3.55;;;;;;;;;;5047900;28;20075;-78
2022/07/22 12:56:33;;;;;;;7.95;3.28;;;;;;;;;;5044706;28;20567;-77
2022/07/22 12:59:02;;;;;;;5.93;3.53;;;;;;;;;;5044482;28;20098;-78
2022/07/22 13:01:29;;;;;;;3.72;3.30;;;;;;;;;;5045733;28;20128;-78
2022/07/22 13:03:56;;;;;;;4.55;3.28;;;;;;;;;;5049589;28;20079;-78
2022/07/22 13:06:23;;;;;;;8.52;3.22;;;;;;;;;;5045582;28;20068;-77
2022/07/22 13:08:50;;;;;;;5.40;3.40;;;;;;;;;;5051524;28;20525;-79
2022/07/22 13:11:17;;;;;;;4.93;3.22;;;;;;;;;;5046885;28;20057;-78
2022/07/22 13:13:45;;;;;;;4.22;3.38;;;;;;;;;;5049160;28;20475;-78
2022/07/22 13:16:12;;;;;;;6.55;3.20;;;;;;;;;;5071140;28;20513;-78
2022/07/22 13:18:38;;;;;;;8.23;3.30;;;;;;;;;;5056698;28;20056;-78
2022/07/22 13:21:05;;;;;;;5.88;3.42;;;;;;;;;;5036367;28;20049;-78
2022/07/22 13:23:31;;;;;;;6.00;3.47;;;;;;;;;;5038296;28;20063;-77
2022/07/22 13:25:58;;;;;;;10.18;3.38;;;;;;;;;;5060281;28;20442;-77
2022/07/22 13:28:24;;;;;;;4.55;3.60;;;;;;;;;;5064548;28;20053;-77
2022/07/22 13:30:50;;;;;;;5.65;3.40;;;;;;;;;;5056836;28;20868;-79
2022/07/22 13:33:17;;;;;;;8.75;3.70;;;;;;;;;;5053380;28;20079;-78
2022/07/22 13:35:43;;;;;;;5.68;3.53;;;;;;;;;;5056680;28;20084;-79
2022/07/22 13:38:10;;;;;;;7.85;3.50;;;;;;;;;;5050725;28;20476;-77
2022/07/22 13:40:41;;;;;;;5.32;3.65;;;;;;;;;;5050637;28;20040;-77
2022/07/22 13:43:08;;;;;;;7.88;3.45;;;;;;;;;;5052369;28;20044;-79
2022/07/22 13:45:40;;;;;;;6.28;3.65;;;;;;;;;;5050852;28;20049;-79
2022/07/22 13:48:07;;;;;;;6.35;3.60;;;;;;;;;;5048466;28;20049;-78
2022/07/22 13:50:33;;;;;;;8.43;3.80;;;;;;;;;;5046789;28;20563;-77
2022/07/22 13:53:00;;;;;;;8.35;3.10;;;;;;;;;;5045795;28;20080;-78
2022/07/22 13:55:26;;;;;;;5.90;3.20;;;;;;;;;;5045768;28;20072;-78
2022/07/22 13:57:53;;;;;;;4.18;3.25;;;;;;;;;;5048397;28;20106;-79
2022/07/22 14:00:19;;;;;;;8.43;3.33;;;;;;;;;;5067641;28;20451;-77
2022/07/22 14:02:46;;;;;;;5.53;3.55;;;;;;;;;;5061241;28;20074;-78
2022/07/22 14:05:14;;;;;;;4.53;3.67;;;;;;;;;;5049526;28;20053;-78
2022/07/22 14:07:40;;;;;;;6.60;3.30;;;;;;;;;;5054658;28;20049;-79
2022/07/22 14:10:07;;;;;;;6.47;3.35;;;;;;;;;;5072402;28;20504;-79
2022/07/22 14:12:34;;;;;;;5.90;3.25;;;;;;;;;;5057957;28;20052;-78
2022/07/22 14:15:00;;;;;;;6.82;3.58;;;;;;;;;;5059562;28;20116;-78
2022/07/22 14:17:32;;;;;;;7.05;3.30;;;;;;;;;;5051620;28;20592;-78
2022/07/22 14:19:59;;;;;;;9.52;3.22;;;;;;;;;;5064487;28;20052;-78
2022/07/22 14:22:27;;;;;;;5.28;3.40;;;;;;;;;;5058179;28;20139;-78
2022/07/22 14:24:53;;;;;;;5.57;3.33;;;;;;;;;;5053354;28;20076;-79
2022/07/22 14:27:20;;;;;;;4.32;3.05;;;;;;;;;;5053995;28;20131;-77
2022/07/22 14:29:46;;;;;;;7.32;3.00;;;;;;;;;;5056185;28;20094;-78
2022/07/22 14:32:12;;;;;;;4.18;3.15;;;;;;;;;;5072679;28;20091;-77
2022/07/22 14:34:39;;;;;;;6.43;3.17;;;;;;;;;;5063575;28;20045;-76
2022/07/22 14:37:05;;;;;;;5.10;3.10;;;;;;;;;;5030302;28;20160;-77
2022/07/22 14:39:32;;;;;;;8.77;3.03;;;;;;;;;;5048056;28;20623;-77
2022/07/22 14:41:58;;;;;;;8.77;3.28;;;;;;;;;;5048345;28;20107;-77